Bend, OR

4:40 AM PST on February 27, 2015 (GMT -0800)
Lava Ridges | Change Station
CLOSE
Current Station
Personal Weather Station
Location: Bend, OR
Elevation: 3465 ft
Nearby Weather Stations
Active Advisory: Winter Weather Advisory

Elev 3465 ft 44.09 °N, 121.28 °W | Updated 3 seconds ago

Partly Cloudy
Partly Cloudy
35.4 °F
Feels Like 35 °F
N
0.0
Wind Variable Wind from West
Gusts 2.0 mph

Today
High -- | Low -- °F
--% Chance of Precip.
Yesterday
High -- | Low -- °F
Precip. -- in
6:45 AM 5:50 PM
Waxing Gibbous, 68% visible
Pressure 29.72 in
Visibility 10.0 miles
Clouds Scattered Clouds 3800 ft
Windchill 35 °F
Dew Point 33 °F
Humidity 90%
Rainfall 0.02 in
Snow Depth Not available.
UV 0 out of 12
Pollen .60 out of 12
Air Quality Not available.
Flu Activity Not available.
METAR KBDN 271235Z AUTO 00000KT 10SM SCT038 02/00 A2972 RMK AO2

More Conditions Fewer Conditions

Pressure 29.72 in
Visibility 10.0 miles
Clouds Scattered Clouds 3800 ft
Windchill 35 °F
Dew Point 33 °F
Humidity 90%
Rainfall 0.02 in
Snow Depth Not available.
UV 0 out of 12
Pollen .60 out of 12
Air Quality Not available.
Flu Activity Not available.
METAR KBDN 271235Z AUTO 00000KT 10SM SCT038 02/00 A2972 RMK AO2

More Conditions Fewer Conditions

10-Day Weather Forecast

Almanac

Astronomy

Feb. 27, 2015 Rise Set
Actual Time
Civil Twilight
Nautical Twilight
Astronomical Twilight
Moon
Length of Visible Light
Length of Day
Tomorrow will be .
, % of the Moon is Illuminated

Today's Extremes

State Highs State Lows

Community

WunderPhotos

Upload Photos

1,800,667 photos uploaded!

WunderBlogs® & News

Nearby

Air Quality

  Air Quality AQ Index Pollutant
Not available.

Snow Depth

Station Depth Elevation

Earthquake Activity

City Distance Mag. Time & Date
Minimum magnitude displayed is 2.5.

Coastal Water Temperatures

Place Temperature

Nearby Weather Stations

Winter Weather Advisory
Statement as of 10:20 PM PST on February 26, 2015

... Winter Weather Advisory remains in effect from 4 PM Friday to
4 am PST Saturday...

A Winter Weather Advisory remains in effect from 4 PM Friday to
4 am PST Saturday.

* Snow accumulations: 2 to 4 inches.

* Elevation: heaviest snow above 3500 feet... especially south
and west of Bend.

* Timing: rain can be expected tonight and Friday. Rain will
change over to snow Friday evening. Snow showers can be
expected through Saturday morning.

* Locations include: Bend... Madras... Prineville... Redmond

* impacts: snow packed roads will make travel difficult. This
includes along highways 20 and 97.

Precautionary/preparedness actions...

A Winter Weather Advisory is issued when snow is occurring or is
expected to develop and accumulate. Travel may be hazardous...
especially on bridges... overpasses... and secondary roads.
Motorists are urged to use extreme caution... and slow down to
adjust for rapidly changing driving conditions and reduced
visibilities. For additional weather information... check our web
site at www.Weather.Gov/Pendleton.